createdAt,value
2022-08-17T00:01:40.010Z,100674.44
2022-08-17T00:04:19.884Z,100667.97
2022-08-17T00:06:49.217Z,100665.09
2022-08-17T00:09:19.047Z,100656.63
2022-08-17T00:12:03.894Z,100658.63
2022-08-17T00:14:34.128Z,100654.31
2022-08-17T00:17:00.854Z,100650.13
2022-08-17T00:19:27.455Z,100646.34
2022-08-17T00:22:32.563Z,100646.47
2022-08-17T00:24:44.563Z,100638.84
2022-08-17T00:27:11.266Z,100643.31
2022-08-17T00:29:37.863Z,100637.84
2022-08-17T00:33:15.410Z,100636.47
2022-08-17T00:34:51.242Z,100637.13
2022-08-17T00:37:18.567Z,100637.13
2022-08-17T00:39:45.166Z,100630.41
2022-08-17T00:42:17.405Z,100636.03
2022-08-17T00:44:44.345Z,100639.66
2022-08-17T00:47:10.907Z,100638.25
2022-08-17T00:49:37.562Z,100641.19
2022-08-17T00:52:15.533Z,100639.84
2022-08-17T00:54:45.009Z,100637.88
2022-08-17T00:57:17.489Z,100629.38
2022-08-17T00:59:56.032Z,100631.06
2022-08-17T01:02:42.034Z,100626.22
2022-08-17T01:05:15.043Z,100622.06
2022-08-17T01:07:43.133Z,100620.16
2022-08-17T01:11:00.251Z,100620.69
2022-08-17T01:13:02.531Z,100614.00
2022-08-17T01:15:36.496Z,100609.84
2022-08-17T01:18:08.148Z,100600.84
2022-08-17T01:20:48.346Z,100600.56
2022-08-17T01:23:20.427Z,100605.53
2022-08-17T01:25:55.281Z,100608.34
2022-08-17T01:28:52.799Z,100612.81
2022-08-17T01:31:15.236Z,100610.47
2022-08-17T01:33:41.960Z,100616.06
2022-08-17T01:36:09.331Z,100616.91
2022-08-17T01:38:37.423Z,100622.50
2022-08-17T01:41:11.254Z,100618.94
2022-08-17T01:43:47.543Z,100623.16
2022-08-17T01:46:23.072Z,100619.41
2022-08-17T01:48:51.260Z,100619.56
2022-08-17T01:51:18.124Z,100624.56
2022-08-17T01:53:50.741Z,100620.25
2022-08-17T01:56:21.577Z,100617.34
2022-08-17T01:58:48.617Z,100614.63
2022-08-17T02:01:18.028Z,100616.59
2022-08-17T02:03:56.097Z,100617.19
2022-08-17T02:06:47.038Z,100612.19
2022-08-17T02:09:19.524Z,100617.78
2022-08-17T02:11:50.034Z,100606.66
2022-08-17T02:14:16.812Z,100614.44
2022-08-17T02:16:43.700Z,100614.72
2022-08-17T02:19:15.749Z,100613.38
2022-08-17T02:21:45.896Z,100608.66
2022-08-17T02:24:17.444Z,100609.66
2022-08-17T02:27:04.581Z,100621.34
2022-08-17T02:29:31.422Z,100615.66
2022-08-17T02:31:58.652Z,100620.81
2022-08-17T02:34:26.307Z,100616.50
2022-08-17T02:36:53.488Z,100618.47
2022-08-17T02:39:20.285Z,100611.38
2022-08-17T02:41:46.935Z,100608.16
2022-08-17T02:44:13.614Z,100610.13
2022-08-17T02:47:00.721Z,100614.50
2022-08-17T02:49:27.281Z,100612.13
2022-08-17T02:51:53.843Z,100609.31
2022-08-17T02:54:39.916Z,100614.19
2022-08-17T02:57:07.390Z,100619.06
2022-08-17T02:59:34.095Z,100609.81
2022-08-17T03:02:03.455Z,100610.81
2022-08-17T03:04:30.399Z,100615.41
2022-08-17T03:06:56.997Z,100609.72
2022-08-17T03:09:23.795Z,100605.69
2022-08-17T03:11:53.078Z,100609.63
2022-08-17T03:14:26.091Z,100604.31
2022-08-17T03:16:53.061Z,100602.63
2022-08-17T03:19:19.617Z,100606.97
2022-08-17T03:21:46.165Z,100601.53
2022-08-17T03:24:21.730Z,100608.34
2022-08-17T03:26:55.466Z,100604.84
2022-08-17T03:29:22.260Z,100600.69
2022-08-17T03:31:50.028Z,100602.53
2022-08-17T03:34:17.212Z,100598.78
2022-08-17T03:36:43.933Z,100598.78
2022-08-17T03:39:10.573Z,100593.50
2022-08-17T03:41:39.041Z,100605.50
2022-08-17T03:44:05.885Z,100602.00
2022-08-17T03:46:51.121Z,100598.13
2022-08-17T03:49:35.903Z,100603.94
2022-08-17T03:52:20.777Z,100606.59
2022-08-17T03:55:05.684Z,100603.00
2022-08-17T03:57:32.544Z,100601.28
2022-08-17T03:59:59.865Z,100610.09
2022-08-17T04:02:34.264Z,100608.53
2022-08-17T04:05:03.495Z,100610.50
2022-08-17T04:07:31.499Z,100612.59
2022-08-17T04:09:59.495Z,100614.00
2022-08-17T04:12:31.259Z,100608.59
2022-08-17T04:14:58.443Z,100607.34
2022-08-17T04:17:29.419Z,100611.38
2022-08-17T04:19:56.946Z,100614.28
2022-08-17T04:22:32.537Z,100615.81
2022-08-17T04:25:13.884Z,100622.78
2022-08-17T04:27:40.518Z,100616.25
2022-08-17T04:30:07.748Z,100623.88
2022-08-17T04:33:19.132Z,100624.44
2022-08-17T04:35:50.161Z,100624.19
2022-08-17T04:38:20.078Z,100636.84
2022-08-17T04:41:06.009Z,100635.19
2022-08-17T04:43:39.932Z,100629.16
2022-08-17T04:46:10.147Z,100637.56
2022-08-17T04:48:39.787Z,100634.34
2022-08-17T04:51:19.307Z,100634.06
2022-08-17T04:53:53.193Z,100633.38
2022-08-17T04:56:21.916Z,100641.56
2022-08-17T04:58:51.418Z,100639.19
2022-08-17T05:01:24.065Z,100642.22
2022-08-17T05:03:53.301Z,100642.78
2022-08-17T05:06:20.533Z,100640.81
2022-08-17T05:08:47.881Z,100641.38
2022-08-17T05:11:14.703Z,100649.16
2022-08-17T05:13:41.365Z,100646.16
2022-08-17T05:16:09.216Z,100644.19
2022-08-17T05:18:37.316Z,100649.63
2022-08-17T05:21:04.485Z,100644.59
2022-08-17T05:23:35.008Z,100649.31
2022-08-17T05:26:25.997Z,100640.53
2022-08-17T05:28:58.445Z,100631.91
2022-08-17T05:31:27.359Z,100627.75
2022-08-17T05:33:53.958Z,100624.94
2022-08-17T05:36:42.154Z,100622.00
2022-08-17T05:39:07.686Z,100618.78
2022-08-17T05:41:34.305Z,100621.56
2022-08-17T05:44:00.901Z,100627.81
2022-08-17T05:46:40.308Z,100627.94
2022-08-17T05:49:08.143Z,100627.34
2022-08-17T05:52:03.194Z,100637.34
2022-08-17T05:54:39.568Z,100632.00
2022-08-17T05:57:17.965Z,100625.28
2022-08-17T06:00:14.281Z,100626.50
2022-08-17T06:02:56.140Z,100628.19
2022-08-17T06:05:51.483Z,100626.06
2022-08-17T06:08:32.028Z,100631.91
2022-08-17T06:11:27.971Z,100662.22
2022-08-17T06:14:22.213Z,100639.16
2022-08-17T06:16:56.788Z,100640.44
2022-08-17T06:19:36.316Z,100664.44
2022-08-17T06:22:06.058Z,100645.38
2022-08-17T06:24:42.063Z,100639.09
2022-08-17T06:27:21.153Z,100656.81
2022-08-17T06:30:05.445Z,100668.16
2022-08-17T06:32:32.232Z,100666.31
2022-08-17T06:35:00.525Z,100659.69
2022-08-17T06:38:04.674Z,100659.75
2022-08-17T06:41:01.994Z,100662.00
2022-08-17T06:43:40.434Z,100656.94
2022-08-17T06:46:13.114Z,100652.38
2022-08-17T06:49:08.019Z,100654.28
2022-08-17T06:51:53.691Z,100654.88
2022-08-17T06:55:02.011Z,100657.75
2022-08-17T06:57:32.029Z,100660.56
2022-08-17T07:00:04.352Z,100663.22
2022-08-17T07:02:51.522Z,100666.56
2022-08-17T07:05:28.107Z,100662.56
2022-08-17T07:08:02.920Z,100675.72
2022-08-17T07:10:36.509Z,100671.38
2022-08-17T07:13:17.087Z,100672.53
2022-08-17T07:15:45.506Z,100683.63
2022-08-17T07:18:12.096Z,100680.16
2022-08-17T07:20:43.808Z,100678.00
2022-08-17T07:23:26.880Z,100685.75
2022-08-17T07:25:53.470Z,100684.94
2022-08-17T07:28:23.233Z,100683.72
2022-08-17T07:30:54.633Z,100700.03
2022-08-17T07:33:26.261Z,100705.38
2022-08-17T07:35:58.236Z,100700.56
2022-08-17T07:38:33.345Z,100709.72
2022-08-17T07:41:07.105Z,100711.22
2022-08-17T07:43:39.941Z,100712.56
2022-08-17T07:46:46.372Z,100704.41
2022-08-17T07:49:12.906Z,100704.78
2022-08-17T07:51:42.581Z,100708.44
2022-08-17T07:54:15.398Z,100707.41
2022-08-17T07:56:42.168Z,100705.72
2022-08-17T07:59:10.702Z,100715.69
2022-08-17T08:01:41.888Z,100710.38
2022-08-17T08:04:20.080Z,100713.22
2022-08-17T08:06:59.634Z,100717.56
2022-08-17T08:09:41.731Z,100708.31
2022-08-17T08:15:14.044Z,100711.81
2022-08-17T08:17:52.085Z,100706.88
2022-08-17T08:20:50.957Z,100714.50
2022-08-17T08:23:34.109Z,100702.75
2022-08-17T08:26:03.560Z,100699.25
2022-08-17T08:28:39.787Z,100699.72
2022-08-17T08:31:09.673Z,100702.84
2022-08-17T08:33:40.069Z,100704.69
2022-08-17T08:37:14.453Z,100717.13
2022-08-17T08:40:15.119Z,100712.19
2022-08-17T08:43:04.001Z,100711.72
2022-08-17T08:45:49.157Z,100717.53
2022-08-17T08:48:22.932Z,100724.94
2022-08-17T08:51:33.014Z,100736.44
2022-08-17T08:54:16.572Z,100735.09
2022-08-17T08:59:59.763Z,100722.81
2022-08-17T09:03:04.197Z,100724.66
2022-08-17T09:05:42.968Z,100727.81
2022-08-17T09:08:21.869Z,100731.50
2022-08-17T09:11:27.033Z,100726.47
2022-08-17T09:13:57.541Z,100726.94
2022-08-17T09:16:45.646Z,100726.41
2022-08-17T09:19:19.509Z,100732.50
2022-08-17T09:21:55.599Z,100713.22
2022-08-17T09:24:32.176Z,100718.50
2022-08-17T09:27:14.790Z,100719.00
2022-08-17T09:30:00.248Z,100726.50
2022-08-17T09:32:52.161Z,100719.59
2022-08-17T09:35:24.202Z,100724.59
2022-08-17T09:38:15.268Z,100721.78
2022-08-17T09:41:03.760Z,100727.59
2022-08-17T09:43:41.585Z,100727.47
2022-08-17T09:46:18.281Z,100722.28
2022-08-17T09:48:59.762Z,100721.31
2022-08-17T09:51:35.283Z,100720.31
2022-08-17T09:54:34.739Z,100723.28
2022-08-17T09:57:11.925Z,100732.72
2022-08-17T10:00:30.415Z,100736.09
2022-08-17T10:03:19.885Z,100753.34
2022-08-17T10:06:01.603Z,100753.16
2022-08-17T10:08:52.312Z,100750.13
2022-08-17T10:12:06.810Z,100759.41
2022-08-17T10:14:43.970Z,100757.72
2022-08-17T10:17:17.188Z,100747.91
2022-08-17T10:19:58.659Z,100754.31
2022-08-17T10:22:54.823Z,100749.63
2022-08-17T10:25:55.026Z,100750.94
2022-08-17T10:28:30.532Z,100767.50
2022-08-17T10:31:32.981Z,100768.13
2022-08-17T10:34:19.185Z,100779.38
2022-08-17T10:36:58.229Z,100777.69
2022-08-17T10:39:36.574Z,100782.41
2022-08-17T10:42:35.275Z,100787.88
2022-08-17T10:45:07.542Z,100781.91
2022-08-17T10:47:56.062Z,100793.16
2022-08-17T10:50:59.998Z,100797.84
2022-08-17T10:53:32.500Z,100802.31
2022-08-17T10:56:14.414Z,100805.66
2022-08-17T10:58:57.898Z,100813.56
2022-08-17T11:01:38.218Z,100811.50
2022-08-17T11:04:21.396Z,100811.16
2022-08-17T11:07:02.387Z,100817.06
2022-08-17T11:09:58.487Z,100812.63
2022-08-17T11:13:11.644Z,100800.69
2022-08-17T11:15:44.110Z,100803.25
2022-08-17T11:18:28.278Z,100789.28
2022-08-17T11:20:57.975Z,100781.19
2022-08-17T11:23:40.054Z,100779.63
2022-08-17T11:26:26.317Z,100778.97
2022-08-17T11:29:00.140Z,100773.25
2022-08-17T11:31:40.285Z,100770.25
2022-08-17T11:34:26.567Z,100762.72
2022-08-17T11:37:31.881Z,100757.41
2022-08-17T11:40:33.785Z,100759.09
2022-08-17T11:43:28.521Z,100764.47
2022-08-17T11:46:19.975Z,100771.69
2022-08-17T11:49:27.035Z,100780.38
2022-08-17T11:52:01.047Z,100777.94
2022-08-17T11:54:33.776Z,100774.00
2022-08-17T11:57:25.825Z,100773.75
2022-08-17T12:00:11.359Z,100778.00
2022-08-17T12:02:49.051Z,100784.56
2022-08-17T12:05:19.438Z,100783.88
2022-08-17T12:07:52.634Z,100781.09
2022-08-17T12:10:30.383Z,100792.91
2022-08-17T12:12:58.720Z,100790.09
2022-08-17T12:15:42.738Z,100804.03
2022-08-17T12:18:29.330Z,100809.34
2022-08-17T12:21:12.250Z,100803.75
2022-08-17T12:24:06.804Z,100796.53
2022-08-17T12:26:35.923Z,100809.22
2022-08-17T12:29:06.516Z,100809.44
2022-08-17T12:31:44.346Z,100809.25
2022-08-17T12:34:39.260Z,100814.22
2022-08-17T12:37:18.700Z,100810.72
2022-08-17T12:40:03.924Z,100815.50
2022-08-17T12:42:37.584Z,100817.13
2022-08-17T12:45:07.630Z,100815.53
2022-08-17T12:47:37.502Z,100820.38
2022-08-17T12:50:29.897Z,100820.31
2022-08-17T12:53:01.091Z,100823.03
2022-08-17T12:55:32.556Z,100823.13
2022-08-17T12:58:01.899Z,100821.66
2022-08-17T13:00:34.854Z,100813.09
2022-08-17T13:03:15.794Z,100810.09
2022-08-17T13:05:59.792Z,100803.84
2022-08-17T13:08:50.476Z,100801.25
2022-08-17T13:11:22.516Z,100797.25
2022-08-17T13:13:52.002Z,100791.91
2022-08-17T13:16:22.850Z,100800.25
2022-08-17T13:18:55.609Z,100798.06
2022-08-17T13:21:30.622Z,100789.50
2022-08-17T13:24:07.820Z,100796.75
2022-08-17T13:26:38.288Z,100799.25
2022-08-17T13:29:23.641Z,100796.94
2022-08-17T13:31:56.627Z,100801.69
2022-08-17T13:35:03.727Z,100803.13
2022-08-17T13:37:35.323Z,100799.28
2022-08-17T13:40:25.001Z,100806.44
2022-08-17T13:42:54.224Z,100798.25
2022-08-17T13:45:39.603Z,100799.06
2022-08-17T13:48:14.528Z,100804.06
2022-08-17T13:50:50.067Z,100806.06
2022-08-17T13:53:36.987Z,100817.06
2022-08-17T13:56:37.428Z,100822.22
2022-08-17T13:59:09.894Z,100829.72
2022-08-17T14:01:42.798Z,100830.03
2022-08-17T14:04:16.576Z,100822.31
2022-08-17T14:07:20.381Z,100825.13
2022-08-17T14:09:52.348Z,100813.28
2022-08-17T14:12:22.291Z,100813.28
2022-08-17T14:14:49.838Z,100816.75
2022-08-17T14:17:16.566Z,100816.94
2022-08-17T14:19:43.321Z,100821.69
2022-08-17T14:22:18.888Z,100817.75
2022-08-17T14:24:46.008Z,100821.88
2022-08-17T14:27:12.670Z,100823.38
2022-08-17T14:29:41.296Z,100819.06
2022-08-17T14:32:26.825Z,100813.88
2022-08-17T14:34:56.849Z,100808.56
2022-08-17T14:37:28.630Z,100805.84
2022-08-17T14:39:57.528Z,100808.00
2022-08-17T14:42:27.826Z,100801.69
2022-08-17T14:44:55.491Z,100807.16
2022-08-17T14:47:22.894Z,100804.25
2022-08-17T14:49:49.622Z,100797.88
2022-08-17T14:52:22.025Z,100802.38
2022-08-17T14:54:52.926Z,100793.59
2022-08-17T14:57:33.179Z,100796.94
2022-08-17T15:00:02.663Z,100795.94
2022-08-17T15:02:31.037Z,100795.25
2022-08-17T15:05:06.101Z,100791.25
2022-08-17T15:07:32.884Z,100783.75
2022-08-17T15:10:02.472Z,100784.59
2022-08-17T15:12:33.641Z,100780.59
2022-08-17T15:15:04.605Z,100775.94
2022-08-17T15:17:44.617Z,100773.63
2022-08-17T15:20:16.035Z,100771.69
2022-08-17T15:22:44.648Z,100762.72
2022-08-17T15:25:12.330Z,100766.19
2022-08-17T15:27:39.118Z,100764.53
2022-08-17T15:30:07.532Z,100764.53
2022-08-17T15:32:38.685Z,100769.53
2022-08-17T15:35:07.925Z,100767.56
2022-08-17T15:37:36.482Z,100754.25
2022-08-17T15:40:05.469Z,100753.72
2022-08-17T15:42:32.491Z,100757.03
2022-08-17T15:45:00.165Z,100754.72
2022-08-17T15:47:26.971Z,100757.38
2022-08-17T15:49:59.409Z,100754.53
2022-08-17T15:52:30.148Z,100756.38
2022-08-17T15:54:59.708Z,100755.38
2022-08-17T15:57:27.504Z,100762.41
2022-08-17T15:59:59.198Z,100772.72
2022-08-17T16:03:45.712Z,100763.41
2022-08-17T16:05:24.868Z,100758.91
2022-08-17T16:07:52.563Z,100760.88
2022-08-17T16:10:19.786Z,100750.75
2022-08-17T16:12:48.765Z,100754.88
2022-08-17T16:15:16.709Z,100768.47
2022-08-17T16:17:43.682Z,100770.72
2022-08-17T16:20:20.512Z,100776.00
2022-08-17T16:22:49.534Z,100781.44
2022-08-17T16:25:21.798Z,100782.25
2022-08-17T16:27:50.714Z,100785.81
2022-08-17T16:30:18.120Z,100790.31
2022-08-17T16:32:45.236Z,100783.91
2022-08-17T16:35:16.740Z,100791.59
2022-08-17T16:37:46.961Z,100789.41
2022-08-17T16:40:15.856Z,100795.88
2022-08-17T16:42:43.435Z,100796.88
2022-08-17T16:45:20.481Z,100807.00
2022-08-17T16:47:50.187Z,100803.13
2022-08-17T16:50:19.770Z,100806.09
2022-08-17T16:52:50.499Z,100801.72
2022-08-17T16:55:21.477Z,100794.06
2022-08-17T16:57:50.230Z,100803.66
2022-08-17T17:00:19.487Z,100797.31
2022-08-17T17:02:49.641Z,100802.00
2022-08-17T17:05:25.662Z,100803.00
2022-08-17T17:08:12.813Z,100799.91
2022-08-17T17:10:47.567Z,100807.34
2022-08-17T17:13:26.500Z,100809.06
2022-08-17T17:16:05.667Z,100814.41
2022-08-17T17:18:40.694Z,100805.81
2022-08-17T17:21:13.573Z,100800.13
2022-08-17T17:24:00.291Z,100802.94
2022-08-17T17:26:46.880Z,100806.31
2022-08-17T17:29:18.535Z,100815.94
2022-08-17T17:31:56.461Z,100808.66
2022-08-17T17:34:26.656Z,100808.06
2022-08-17T17:36:58.437Z,100811.09
2022-08-17T17:39:55.901Z,100811.38
2022-08-17T17:42:28.815Z,100819.81
2022-08-17T17:45:03.737Z,100815.63
2022-08-17T17:47:31.423Z,100813.28
2022-08-17T17:50:00.825Z,100816.91
2022-08-17T17:52:46.398Z,100822.06
2022-08-17T17:55:33.419Z,100824.13
2022-08-17T17:58:09.756Z,100817.88
2022-08-17T18:00:43.938Z,100817.78
2022-08-17T18:03:44.103Z,100831.94
2022-08-17T18:06:28.653Z,100838.22
2022-08-17T18:09:28.493Z,100830.78
2022-08-17T18:12:19.902Z,100842.69
2022-08-17T18:14:49.756Z,100844.53
2022-08-17T18:17:18.302Z,100851.13
2022-08-17T18:19:45.361Z,100849.31
2022-08-17T18:22:21.911Z,100851.13
2022-08-17T18:24:56.556Z,100850.97
2022-08-17T18:27:25.884Z,100864.91
2022-08-17T18:29:55.630Z,100853.50
2022-08-17T18:32:28.622Z,100851.28
2022-08-17T18:35:09.210Z,100852.44
2022-08-17T18:37:35.911Z,100861.06
2022-08-17T18:40:33.696Z,100859.25
2022-08-17T18:43:22.972Z,100858.16
2022-08-17T18:45:52.983Z,100861.06
2022-08-17T18:48:36.227Z,100861.78
2022-08-17T18:51:39.823Z,100855.19
2022-08-17T18:54:17.505Z,100860.94
2022-08-17T18:56:51.473Z,100864.28
2022-08-17T18:59:40.449Z,100879.50
2022-08-17T19:02:44.638Z,100870.72
2022-08-17T19:05:33.808Z,100868.63
2022-08-17T19:08:21.386Z,100878.78
2022-08-17T19:11:10.879Z,100887.84
2022-08-17T19:13:43.930Z,100891.19
2022-08-17T19:16:14.935Z,100896.78
2022-08-17T19:19:14.677Z,100896.94
2022-08-17T19:21:57.496Z,100905.97
2022-08-17T19:24:27.134Z,100902.91
2022-08-17T19:27:06.310Z,100902.91
2022-08-17T19:29:42.583Z,100912.28
2022-08-17T19:32:11.063Z,100915.34
2022-08-17T19:34:39.177Z,100909.91
2022-08-17T19:37:20.853Z,100907.69
2022-08-17T19:40:07.121Z,100909.50
2022-08-17T19:42:52.919Z,100903.50
2022-08-17T19:45:34.423Z,100903.38
2022-08-17T19:48:19.516Z,100898.78
2022-08-17T19:51:07.538Z,100907.13
2022-08-17T19:54:03.789Z,100902.09
2022-08-17T19:57:01.727Z,100899.59
2022-08-17T20:00:13.429Z,100895.63
2022-08-17T20:02:55.547Z,100896.50
2022-08-17T20:06:09.161Z,100902.34
2022-08-17T20:08:38.727Z,100900.78
2022-08-17T20:11:15.234Z,100905.69
2022-08-17T20:13:46.411Z,100907.75
2022-08-17T20:16:13.168Z,100912.59
2022-08-17T20:18:54.885Z,100920.97
2022-08-17T20:21:29.186Z,100930.97
2022-08-17T20:24:05.892Z,100919.56
2022-08-17T20:26:55.213Z,100932.78
2022-08-17T20:29:40.093Z,100929.69
2022-08-17T20:32:21.632Z,100931.63
2022-08-17T20:34:48.490Z,100931.47
2022-08-17T20:37:15.066Z,100928.56
2022-08-17T20:40:04.929Z,100932.75
2022-08-17T20:42:33.942Z,100933.16
2022-08-17T20:45:22.243Z,100927.59
2022-08-17T20:48:18.606Z,100926.34
2022-08-17T20:50:44.330Z,100934.28
2022-08-17T20:53:15.016Z,100941.78
2022-08-17T20:55:52.312Z,100945.09
2022-08-17T20:58:21.295Z,100940.47
2022-08-17T21:00:57.138Z,100941.28
2022-08-17T21:03:23.964Z,100944.19
2022-08-17T21:06:15.346Z,100937.22
2022-08-17T21:08:53.286Z,100933.88
2022-08-17T21:11:57.032Z,100947.56
2022-08-17T21:14:31.821Z,100935.81
2022-08-17T21:17:07.648Z,100943.31
2022-08-17T21:20:07.656Z,100941.94
2022-08-17T21:22:36.181Z,100942.06
2022-08-17T21:25:34.259Z,100944.22
2022-08-17T21:28:11.454Z,100942.94
2022-08-17T21:30:39.771Z,100941.56
2022-08-17T21:33:21.307Z,100943.47
2022-08-17T21:35:52.450Z,100940.97
2022-08-17T21:38:23.365Z,100945.69
2022-08-17T21:40:54.149Z,100956.88
2022-08-17T21:43:32.579Z,100949.91
2022-08-17T21:46:10.650Z,100956.88
2022-08-17T21:48:44.822Z,100958.13
2022-08-17T21:51:19.750Z,100956.94
2022-08-17T21:53:59.700Z,100958.06
2022-08-17T21:56:37.649Z,100962.75
2022-08-17T21:59:30.115Z,100961.31
2022-08-17T22:02:03.308Z,100955.47
2022-08-17T22:04:31.895Z,100955.97
2022-08-17T22:07:01.468Z,100960.78
2022-08-17T22:09:32.456Z,100972.91
2022-08-17T22:12:01.911Z,100974.31
2022-08-17T22:14:53.394Z,100967.38
2022-08-17T22:17:37.066Z,100963.19
2022-08-17T22:20:14.566Z,100958.28
2022-08-17T22:23:08.977Z,100971.00
2022-08-17T22:25:56.368Z,100970.91
2022-08-17T22:28:43.210Z,100970.31
2022-08-17T22:31:14.449Z,100969.75
2022-08-17T22:33:50.703Z,100965.41
2022-08-17T22:36:29.229Z,100974.19
2022-08-17T22:39:22.399Z,100975.38
2022-08-17T22:41:55.912Z,100990.50
2022-08-17T22:44:48.083Z,100987.16
2022-08-17T22:47:14.982Z,100979.75
2022-08-17T22:49:53.546Z,100971.13
2022-08-17T22:52:34.235Z,100975.22
2022-08-17T22:55:24.925Z,100965.97
2022-08-17T22:58:10.820Z,100972.09
2022-08-17T23:00:43.386Z,100968.06
2022-08-17T23:03:28.222Z,100980.63
2022-08-17T23:06:08.300Z,100973.56
2022-08-17T23:09:08.711Z,100983.88
2022-08-17T23:11:48.941Z,100981.34
2022-08-17T23:14:18.811Z,100987.31
2022-08-17T23:16:46.226Z,100975.84
2022-08-17T23:19:15.565Z,100976.53
2022-08-17T23:21:45.186Z,100983.75
2022-08-17T23:24:16.866Z,100975.34
2022-08-17T23:26:43.489Z,100973.78
2022-08-17T23:29:10.147Z,100967.31
2022-08-17T23:31:38.758Z,100966.84
2022-08-17T23:34:11.667Z,100969.50
2022-08-17T23:36:38.881Z,100969.94
2022-08-17T23:39:06.685Z,100975.00
2022-08-17T23:41:39.053Z,100974.16
2022-08-17T23:44:07.032Z,100979.44
2022-08-17T23:46:34.768Z,100974.03
2022-08-17T23:49:01.537Z,100977.16
2022-08-17T23:51:38.392Z,100980.16
2022-08-17T23:54:16.075Z,100984.72
2022-08-17T23:56:46.725Z,100994.69
2022-08-17T23:59:15.110Z,100993.84
